createdAt,value
2019-02-27T00:00:45.940Z,4.00
2019-02-27T00:01:49.695Z,4.00
2019-02-27T00:02:45.922Z,4.00
2019-02-27T00:03:45.912Z,4.00
2019-02-27T00:04:45.905Z,4.00
2019-02-27T00:05:45.893Z,4.00
2019-02-27T00:06:47.848Z,4.00
2019-02-27T00:07:45.903Z,4.00
2019-02-27T00:08:45.871Z,4.00
2019-02-27T00:09:45.857Z,4.00
2019-02-27T00:10:45.845Z,4.00
2019-02-27T00:11:46.700Z,4.00
2019-02-27T00:12:45.828Z,4.00
2019-02-27T00:13:45.817Z,4.00
2019-02-27T00:14:45.808Z,4.00
2019-02-27T00:15:45.799Z,4.00
2019-02-27T00:16:45.789Z,4.00
2019-02-27T00:17:45.782Z,4.00
2019-02-27T00:18:45.773Z,4.00
2019-02-27T00:19:45.761Z,4.00
2019-02-27T00:20:45.783Z,4.00
2019-02-27T00:21:45.741Z,4.00
2019-02-27T00:22:47.920Z,4.00
2019-02-27T00:23:45.721Z,4.00
2019-02-27T00:24:45.712Z,4.00
2019-02-27T00:25:45.706Z,4.00
2019-02-27T00:26:45.732Z,4.00
2019-02-27T00:27:48.692Z,4.00
2019-02-27T00:28:45.675Z,4.00
2019-02-27T00:29:45.663Z,4.00
2019-02-27T00:30:45.653Z,4.00
2019-02-27T00:31:46.201Z,4.00
2019-02-27T00:32:45.635Z,4.00
2019-02-27T00:33:45.654Z,4.00
2019-02-27T00:34:45.650Z,4.00
2019-02-27T00:35:45.608Z,4.00
2019-02-27T00:36:45.708Z,4.00
2019-02-27T00:37:45.589Z,4.00
2019-02-27T00:38:45.576Z,4.00
2019-02-27T00:39:45.564Z,4.00
2019-02-27T00:40:45.556Z,4.00
2019-02-27T00:41:46.059Z,4.00
2019-02-27T00:42:45.546Z,4.00
2019-02-27T00:43:45.526Z,4.00
2019-02-27T00:44:45.517Z,4.00
2019-02-27T00:45:45.507Z,4.00
2019-02-27T00:46:46.465Z,4.00
2019-02-27T00:47:45.484Z,4.00
2019-02-27T00:48:45.477Z,4.00
2019-02-27T00:49:45.470Z,4.00
2019-02-27T00:50:45.462Z,4.00
2019-02-27T00:51:45.522Z,4.00
2019-02-27T00:52:45.442Z,4.00
2019-02-27T00:53:45.489Z,4.00
2019-02-27T00:54:45.418Z,4.00
2019-02-27T00:55:45.424Z,4.00
2019-02-27T00:56:45.725Z,4.00
2019-02-27T00:57:45.390Z,4.00
2019-02-27T00:58:45.377Z,4.00
2019-02-27T00:59:45.369Z,4.00
2019-02-27T01:00:45.358Z,4.00
2019-02-27T01:01:47.498Z,4.00
2019-02-27T01:02:45.340Z,4.00
2019-02-27T01:03:45.332Z,4.00
2019-02-27T01:04:45.317Z,4.00
2019-02-27T01:05:45.323Z,4.00
2019-02-27T01:06:47.454Z,4.00
2019-02-27T01:07:45.290Z,4.00
2019-02-27T01:08:45.280Z,4.00
2019-02-27T01:09:45.271Z,4.00
2019-02-27T01:10:45.870Z,4.00
2019-02-27T01:11:45.256Z,4.00
2019-02-27T01:12:45.303Z,4.00
2019-02-27T01:13:45.230Z,4.00
2019-02-27T01:14:45.219Z,4.00
2019-02-27T01:15:45.209Z,4.00
2019-02-27T01:16:47.694Z,4.00
2019-02-27T01:17:45.202Z,4.00
2019-02-27T01:18:45.177Z,4.00
2019-02-27T01:19:45.169Z,4.00
2019-02-27T01:20:46.441Z,4.00
2019-02-27T01:21:45.150Z,4.00
2019-02-27T01:22:45.139Z,4.00
2019-02-27T01:23:45.136Z,4.00
2019-02-27T01:24:45.116Z,4.00
2019-02-27T01:25:45.109Z,4.00
2019-02-27T01:26:45.099Z,4.00
2019-02-27T01:27:45.092Z,4.00
2019-02-27T01:28:45.623Z,4.00
2019-02-27T01:29:45.067Z,4.00
2019-02-27T01:30:45.057Z,4.00
2019-02-27T01:31:45.052Z,4.00
2019-02-27T01:32:45.039Z,4.00
2019-02-27T01:33:45.034Z,4.00
2019-02-27T01:34:45.093Z,4.00
2019-02-27T01:35:45.009Z,4.00
2019-02-27T01:36:45.013Z,4.00
2019-02-27T01:37:44.993Z,4.00
2019-02-27T01:38:44.977Z,4.00
2019-02-27T01:39:44.972Z,4.00
2019-02-27T01:40:44.956Z,4.00
2019-02-27T01:41:44.947Z,4.00
2019-02-27T01:42:44.964Z,4.00
2019-02-27T01:43:44.925Z,4.00
2019-02-27T01:44:46.566Z,4.00
2019-02-27T01:45:44.910Z,4.00
2019-02-27T01:46:44.898Z,4.00
2019-02-27T01:47:44.887Z,4.00
2019-02-27T01:48:44.877Z,4.00
2019-02-27T01:49:48.922Z,4.00
2019-02-27T01:50:44.857Z,4.00
2019-02-27T01:51:44.847Z,4.00
2019-02-27T01:52:44.839Z,4.00
2019-02-27T01:53:44.827Z,4.00
2019-02-27T01:54:46.097Z,4.00
2019-02-27T01:55:44.806Z,4.00
2019-02-27T01:56:44.794Z,4.00
2019-02-27T01:57:44.788Z,4.00
2019-02-27T01:58:44.783Z,4.00
2019-02-27T01:59:44.763Z,4.00
2019-02-27T02:00:44.761Z,4.00
2019-02-27T02:01:44.742Z,4.00
2019-02-27T02:02:44.736Z,4.00
2019-02-27T02:03:47.163Z,4.00
2019-02-27T02:04:44.711Z,4.00
2019-02-27T02:05:44.701Z,4.00
2019-02-27T02:06:44.691Z,4.00
2019-02-27T02:07:44.681Z,4.00
2019-02-27T02:08:47.983Z,4.00
2019-02-27T02:09:44.659Z,4.00
2019-02-27T02:10:44.655Z,4.00
2019-02-27T02:11:44.637Z,4.00
2019-02-27T02:12:44.627Z,4.00
2019-02-27T02:13:48.022Z,4.00
2019-02-27T02:14:44.611Z,4.00
2019-02-27T02:15:44.596Z,4.00
2019-02-27T02:16:44.586Z,4.00
2019-02-27T02:17:44.582Z,4.00
2019-02-27T02:18:45.732Z,4.00
2019-02-27T02:19:44.558Z,4.00
2019-02-27T02:20:44.545Z,4.00
2019-02-27T02:21:44.536Z,4.00
2019-02-27T02:22:44.525Z,4.00
2019-02-27T02:23:44.947Z,4.00
2019-02-27T02:24:44.507Z,4.00
2019-02-27T02:25:44.494Z,4.00
2019-02-27T02:26:44.483Z,4.00
2019-02-27T02:27:44.473Z,4.00
2019-02-27T02:28:48.072Z,4.00
2019-02-27T02:29:44.452Z,4.00
2019-02-27T02:30:44.453Z,4.00
2019-02-27T02:31:44.438Z,4.00
2019-02-27T02:32:44.423Z,4.00
2019-02-27T02:33:44.416Z,4.00
2019-02-27T02:34:44.402Z,4.00
2019-02-27T02:35:49.748Z,4.00
2019-02-27T02:36:44.381Z,4.00
2019-02-27T02:37:44.375Z,4.00
2019-02-27T02:38:44.357Z,4.00
2019-02-27T02:39:44.349Z,4.00
2019-02-27T02:40:44.339Z,4.00
2019-02-27T02:41:47.971Z,4.00
2019-02-27T02:42:44.320Z,4.00
2019-02-27T02:43:44.326Z,4.00
2019-02-27T02:44:44.364Z,4.00
2019-02-27T02:45:44.285Z,4.00
2019-02-27T02:46:45.282Z,4.00
2019-02-27T02:47:44.267Z,4.00
2019-02-27T02:48:44.253Z,4.00
2019-02-27T02:49:44.262Z,4.00
2019-02-27T02:50:44.234Z,4.00
2019-02-27T02:51:44.227Z,4.00
2019-02-27T02:52:44.212Z,4.00
2019-02-27T02:53:44.203Z,4.00
2019-02-27T02:54:44.190Z,4.00
2019-02-27T02:55:47.729Z,4.00
2019-02-27T02:56:44.172Z,4.00
2019-02-27T02:57:44.162Z,4.00
2019-02-27T02:58:48.435Z,4.00
2019-02-27T02:59:44.136Z,4.00
2019-02-27T03:00:44.127Z,4.00
2019-02-27T03:01:45.589Z,4.00
2019-02-27T03:02:44.109Z,4.00
2019-02-27T03:03:44.112Z,4.00
2019-02-27T03:04:47.933Z,4.00
2019-02-27T03:05:44.086Z,4.00
2019-02-27T03:06:44.067Z,4.00
2019-02-27T03:07:44.871Z,4.00
2019-02-27T03:08:44.045Z,4.00
2019-02-27T03:09:44.032Z,4.00
2019-02-27T03:10:44.022Z,4.00
2019-02-27T03:11:44.017Z,4.00
2019-02-27T03:12:44.005Z,4.00
2019-02-27T03:13:43.998Z,4.00
2019-02-27T03:14:43.985Z,4.00
2019-02-27T03:15:43.976Z,4.00
2019-02-27T03:16:43.964Z,4.00
2019-02-27T03:17:43.951Z,4.00
2019-02-27T03:18:43.937Z,4.00
2019-02-27T03:19:43.953Z,4.00
2019-02-27T03:20:43.917Z,4.00
2019-02-27T03:21:43.909Z,4.00
2019-02-27T03:22:43.898Z,4.00
2019-02-27T03:23:43.890Z,4.00
2019-02-27T03:24:43.886Z,4.00
2019-02-27T03:25:43.871Z,4.00
2019-02-27T03:26:43.854Z,4.00
2019-02-27T03:27:43.842Z,4.00
2019-02-27T03:28:43.829Z,4.00
2019-02-27T03:29:43.819Z,4.00
2019-02-27T03:30:43.814Z,4.00
2019-02-27T03:31:43.803Z,4.00
2019-02-27T03:32:43.955Z,4.00
2019-02-27T03:33:43.781Z,4.00
2019-02-27T03:34:50.435Z,4.00
2019-02-27T03:35:43.764Z,4.00
2019-02-27T03:36:43.748Z,4.00
2019-02-27T03:37:47.975Z,4.00
2019-02-27T03:38:43.725Z,4.00
2019-02-27T03:39:43.714Z,4.00
2019-02-27T03:40:45.146Z,4.00
2019-02-27T03:41:43.694Z,4.00
2019-02-27T03:42:43.684Z,4.00
2019-02-27T03:43:45.978Z,4.00
2019-02-27T03:44:43.662Z,4.00
2019-02-27T03:45:43.655Z,4.00
2019-02-27T03:46:43.647Z,4.00
2019-02-27T03:47:43.634Z,4.00
2019-02-27T03:48:43.620Z,4.00
2019-02-27T03:49:43.609Z,4.00
2019-02-27T03:50:49.556Z,4.00
2019-02-27T03:51:43.598Z,4.00
2019-02-27T03:52:43.577Z,4.00
2019-02-27T03:53:46.437Z,4.00
2019-02-27T03:54:43.566Z,4.00
2019-02-27T03:55:43.554Z,4.00
2019-02-27T03:56:44.673Z,4.00
2019-02-27T03:57:43.527Z,4.00
2019-02-27T03:58:43.516Z,4.00
2019-02-27T03:59:43.851Z,4.00
2019-02-27T04:00:43.507Z,4.00
2019-02-27T04:01:43.499Z,4.00
2019-02-27T04:02:43.474Z,4.00
2019-02-27T04:03:43.462Z,4.00
2019-02-27T04:04:43.470Z,4.00
2019-02-27T04:05:46.033Z,4.00
2019-02-27T04:06:43.430Z,4.00
2019-02-27T04:07:43.427Z,4.00
2019-02-27T04:08:44.827Z,4.00
2019-02-27T04:09:43.399Z,4.00
2019-02-27T04:10:43.389Z,4.00
2019-02-27T04:11:43.389Z,4.00
2019-02-27T04:12:43.366Z,4.00
2019-02-27T04:13:43.364Z,4.00
2019-02-27T04:14:43.343Z,4.00
2019-02-27T04:15:43.335Z,4.00
2019-02-27T04:16:43.327Z,4.00
2019-02-27T04:17:43.312Z,4.00
2019-02-27T04:18:43.304Z,4.00
2019-02-27T04:19:43.301Z,4.00
2019-02-27T04:20:43.280Z,4.00
2019-02-27T04:21:43.272Z,4.00
2019-02-27T04:22:43.266Z,4.00
2019-02-27T04:23:47.949Z,4.00
2019-02-27T04:24:43.239Z,4.00
2019-02-27T04:25:43.236Z,4.00
2019-02-27T04:26:43.223Z,4.00
2019-02-27T04:27:43.206Z,4.00
2019-02-27T04:28:43.195Z,4.00
2019-02-27T04:29:43.195Z,4.00
2019-02-27T04:30:43.175Z,4.00
2019-02-27T04:31:43.168Z,4.00
2019-02-27T04:32:47.650Z,4.00
2019-02-27T04:33:43.148Z,4.00
2019-02-27T04:34:43.134Z,4.00
2019-02-27T04:35:43.126Z,4.00
2019-02-27T04:36:47.014Z,4.00
2019-02-27T04:37:43.102Z,4.00
2019-02-27T04:38:43.090Z,4.00
2019-02-27T04:39:43.077Z,4.00
2019-02-27T04:40:44.168Z,4.00
2019-02-27T04:41:43.057Z,4.00
2019-02-27T04:42:43.045Z,4.00
2019-02-27T04:43:43.035Z,4.00
2019-02-27T04:44:43.024Z,4.00
2019-02-27T04:45:46.435Z,4.00
2019-02-27T04:46:43.003Z,4.00
2019-02-27T04:47:42.993Z,4.00
2019-02-27T04:48:42.982Z,4.00
2019-02-27T04:49:42.971Z,4.00
2019-02-27T04:50:44.176Z,4.00
2019-02-27T04:51:42.949Z,4.00
2019-02-27T04:52:42.939Z,4.00
2019-02-27T04:53:42.931Z,4.00
2019-02-27T04:54:42.920Z,4.00
2019-02-27T04:55:42.906Z,4.00
2019-02-27T04:56:42.898Z,4.00
2019-02-27T04:57:42.884Z,4.00
2019-02-27T04:58:43.688Z,4.00
2019-02-27T04:59:42.865Z,4.00
2019-02-27T05:00:42.858Z,4.00
2019-02-27T05:01:42.845Z,4.00
2019-02-27T05:02:42.834Z,4.00
2019-02-27T05:03:42.825Z,4.00
2019-02-27T05:04:42.810Z,4.00
2019-02-27T05:05:42.802Z,4.00
2019-02-27T05:06:46.849Z,4.00
2019-02-27T05:07:42.779Z,4.00
2019-02-27T05:08:42.773Z,4.00
2019-02-27T05:09:42.760Z,4.00
2019-02-27T05:10:42.746Z,4.00
2019-02-27T05:11:47.573Z,4.00
2019-02-27T05:12:42.729Z,4.00
2019-02-27T05:13:42.717Z,4.00
2019-02-27T05:14:42.711Z,4.00
2019-02-27T05:15:42.692Z,4.00
2019-02-27T05:16:46.953Z,4.00
2019-02-27T05:17:42.672Z,4.00
2019-02-27T05:18:42.665Z,4.00
2019-02-27T05:19:42.649Z,4.00
2019-02-27T05:20:45.069Z,4.00
2019-02-27T05:21:42.636Z,4.00
2019-02-27T05:22:42.628Z,4.00
2019-02-27T05:23:42.620Z,4.00
2019-02-27T05:24:42.596Z,4.00
2019-02-27T05:25:42.593Z,4.00
2019-02-27T05:26:42.575Z,8.00
2019-02-27T05:27:42.571Z,4.00
2019-02-27T05:28:42.554Z,4.00
2019-02-27T05:29:42.559Z,8.00
2019-02-27T05:30:44.771Z,8.00
2019-02-27T05:31:42.521Z,8.00
2019-02-27T05:32:42.512Z,8.00
2019-02-27T05:33:42.506Z,8.00
2019-02-27T05:34:42.491Z,8.00
2019-02-27T05:35:42.478Z,8.00
2019-02-27T05:36:42.469Z,4.00
2019-02-27T05:37:42.460Z,8.00
2019-02-27T05:38:43.680Z,8.00
2019-02-27T05:39:42.439Z,8.00
2019-02-27T05:40:42.428Z,8.00
2019-02-27T05:41:42.414Z,12.00
2019-02-27T05:42:42.404Z,4.00
2019-02-27T05:43:47.558Z,8.00
2019-02-27T05:44:42.381Z,8.00
2019-02-27T05:45:42.371Z,8.00
2019-02-27T05:46:42.360Z,12.00
2019-02-27T05:47:45.841Z,12.00
2019-02-27T05:48:42.348Z,16.00
2019-02-27T05:49:42.332Z,16.00
2019-02-27T05:50:44.347Z,16.00
2019-02-27T05:51:42.308Z,20.00
2019-02-27T05:52:42.296Z,24.00
2019-02-27T05:53:42.289Z,24.00
2019-02-27T05:54:42.276Z,28.00
2019-02-27T05:55:42.267Z,28.00
2019-02-27T05:56:42.254Z,36.00
2019-02-27T05:57:42.243Z,40.00
2019-02-27T05:58:42.229Z,44.00
2019-02-27T05:59:42.221Z,48.00
2019-02-27T06:00:42.214Z,52.00
2019-02-27T06:01:42.196Z,60.00
2019-02-27T06:02:45.068Z,64.00
2019-02-27T06:03:42.177Z,68.00
2019-02-27T06:04:42.176Z,80.00
2019-02-27T06:05:49.365Z,84.00
2019-02-27T06:06:45.037Z,92.00
2019-02-27T06:07:42.131Z,100.00
2019-02-27T06:08:42.121Z,108.00
2019-02-27T06:09:43.745Z,120.00
2019-02-27T06:10:42.097Z,128.00
2019-02-27T06:11:42.090Z,136.00
2019-02-27T06:12:42.088Z,148.00
2019-02-27T06:13:42.068Z,156.00
2019-02-27T06:14:42.055Z,168.00
2019-02-27T06:15:42.045Z,176.00
2019-02-27T06:16:42.032Z,184.00
2019-02-27T06:17:43.616Z,196.00
2019-02-27T06:18:42.028Z,204.00
2019-02-27T06:19:42.000Z,220.00
2019-02-27T06:20:42.541Z,228.00
2019-02-27T06:21:41.983Z,236.00
2019-02-27T06:22:41.967Z,252.00
2019-02-27T06:23:41.955Z,260.00
2019-02-27T06:24:45.252Z,272.00
2019-02-27T06:25:41.942Z,284.00
2019-02-27T06:26:41.943Z,292.00
2019-02-27T06:27:41.914Z,304.00
2019-02-27T06:28:41.967Z,312.00
2019-02-27T06:29:41.891Z,324.00
2019-02-27T06:30:41.880Z,336.00
2019-02-27T06:31:41.869Z,344.00
2019-02-27T06:32:41.859Z,356.00
2019-02-27T06:33:45.070Z,364.00
2019-02-27T06:34:41.837Z,372.00
2019-02-27T06:35:41.824Z,384.00
2019-02-27T06:36:42.858Z,392.00
2019-02-27T06:37:41.805Z,404.00
2019-02-27T06:38:41.794Z,408.00
2019-02-27T06:39:41.779Z,424.00
2019-02-27T06:40:42.321Z,432.00
2019-02-27T06:41:41.758Z,436.00
2019-02-27T06:42:41.749Z,448.00
2019-02-27T06:43:41.735Z,456.00
2019-02-27T06:44:41.726Z,464.00
2019-02-27T06:45:45.492Z,472.00
2019-02-27T06:46:41.738Z,480.00
2019-02-27T06:47:41.692Z,484.00
2019-02-27T06:48:43.603Z,492.00
2019-02-27T06:49:41.672Z,500.00
2019-02-27T06:50:41.663Z,504.00
2019-02-27T06:51:41.650Z,512.00
2019-02-27T06:52:42.452Z,520.00
2019-02-27T06:53:41.626Z,528.00
2019-02-27T06:54:41.619Z,532.00
2019-02-27T06:55:41.607Z,540.00
2019-02-27T06:56:41.595Z,544.00
2019-02-27T06:57:41.934Z,552.00
2019-02-27T06:58:41.578Z,560.00
2019-02-27T06:59:41.567Z,564.00
2019-02-27T07:00:41.556Z,568.00
2019-02-27T07:01:41.542Z,576.00
2019-02-27T07:02:41.532Z,580.00
2019-02-27T07:03:41.517Z,584.00
2019-02-27T07:04:41.518Z,592.00
2019-02-27T07:05:41.494Z,596.00
2019-02-27T07:06:41.485Z,600.00
2019-02-27T07:07:41.476Z,604.00
2019-02-27T07:08:41.465Z,612.00
2019-02-27T07:09:43.217Z,616.00
2019-02-27T07:10:41.441Z,624.00
2019-02-27T07:11:44.936Z,624.00
2019-02-27T07:12:41.507Z,628.00
2019-02-27T07:13:41.408Z,636.00
2019-02-27T07:14:41.397Z,640.00
2019-02-27T07:15:41.394Z,644.00
2019-02-27T07:16:41.379Z,648.00
2019-02-27T07:17:41.365Z,652.00
2019-02-27T07:18:42.376Z,660.00
2019-02-27T07:19:41.342Z,660.00
2019-02-27T07:20:41.334Z,664.00
2019-02-27T07:21:41.324Z,668.00
2019-02-27T07:22:45.675Z,672.00
2019-02-27T07:23:41.307Z,672.00
2019-02-27T07:24:41.288Z,676.00
2019-02-27T07:25:42.176Z,680.00
2019-02-27T07:26:41.269Z,684.00
2019-02-27T07:27:41.264Z,688.00
2019-02-27T07:28:43.438Z,692.00
2019-02-27T07:29:42.804Z,692.00
2019-02-27T07:30:42.652Z,696.00
2019-02-27T07:31:41.225Z,696.00
2019-02-27T07:32:41.221Z,700.00
2019-02-27T07:33:41.223Z,704.00
2019-02-27T07:34:41.339Z,704.00
2019-02-27T07:35:41.175Z,708.00
2019-02-27T07:36:41.161Z,712.00
2019-02-27T07:37:41.150Z,716.00
2019-02-27T07:38:41.146Z,716.00
2019-02-27T07:39:41.128Z,716.00
2019-02-27T07:40:42.935Z,724.00
2019-02-27T07:41:41.122Z,728.00
2019-02-27T07:42:41.100Z,732.00
2019-02-27T07:43:41.085Z,732.00
2019-02-27T07:44:42.242Z,732.00
2019-02-27T07:45:42.717Z,740.00
2019-02-27T07:46:41.067Z,736.00
2019-02-27T07:47:41.057Z,740.00
2019-02-27T07:48:41.034Z,744.00
2019-02-27T07:49:41.023Z,748.00
2019-02-27T07:50:41.012Z,744.00
2019-02-27T07:51:41.068Z,748.00
2019-02-27T07:52:40.995Z,752.00
2019-02-27T07:53:40.981Z,756.00
2019-02-27T07:54:40.970Z,756.00
2019-02-27T07:55:40.960Z,760.00
2019-02-27T07:56:40.948Z,760.00
2019-02-27T07:57:40.937Z,760.00
2019-02-27T07:58:40.933Z,764.00
2019-02-27T07:59:40.915Z,764.00
2019-02-27T08:00:42.780Z,768.00
2019-02-27T08:01:43.751Z,768.00
2019-02-27T08:02:40.884Z,768.00
2019-02-27T08:03:44.640Z,772.00
2019-02-27T08:04:40.860Z,776.00
2019-02-27T08:05:40.852Z,776.00
2019-02-27T08:06:41.532Z,780.00
2019-02-27T08:07:40.830Z,780.00
2019-02-27T08:08:40.823Z,780.00
2019-02-27T08:09:40.807Z,784.00
2019-02-27T08:10:40.801Z,784.00
2019-02-27T08:11:40.790Z,788.00
2019-02-27T08:12:40.774Z,804.00
2019-02-27T08:13:40.771Z,804.00
2019-02-27T08:14:40.754Z,808.00
2019-02-27T08:15:40.744Z,808.00
2019-02-27T08:16:40.738Z,812.00
2019-02-27T08:17:40.722Z,808.00
2019-02-27T08:18:40.713Z,812.00
2019-02-27T08:19:42.823Z,828.00
2019-02-27T08:20:40.691Z,816.00
2019-02-27T08:21:40.681Z,816.00
2019-02-27T08:22:40.671Z,804.00
2019-02-27T08:23:40.659Z,804.00
2019-02-27T08:24:40.651Z,804.00
2019-02-27T08:25:40.644Z,812.00
2019-02-27T08:26:40.630Z,812.00
2019-02-27T08:27:43.050Z,812.00
2019-02-27T08:28:40.610Z,816.00
2019-02-27T08:29:40.596Z,812.00
2019-02-27T08:30:40.590Z,816.00
2019-02-27T08:31:40.579Z,816.00
2019-02-27T08:32:40.567Z,816.00
2019-02-27T08:33:40.571Z,820.00
2019-02-27T08:34:40.545Z,820.00
2019-02-27T08:35:40.540Z,820.00
2019-02-27T08:36:40.530Z,820.00
2019-02-27T08:37:40.519Z,824.00
2019-02-27T08:38:40.507Z,824.00
2019-02-27T08:39:40.503Z,824.00
2019-02-27T08:40:40.486Z,824.00
2019-02-27T08:41:40.476Z,824.00
2019-02-27T08:42:40.703Z,828.00
2019-02-27T08:43:41.207Z,828.00
2019-02-27T08:44:42.968Z,832.00
2019-02-27T08:45:40.435Z,832.00
2019-02-27T08:46:40.430Z,832.00
2019-02-27T08:47:40.891Z,832.00
2019-02-27T08:48:40.441Z,836.00
2019-02-27T08:49:40.397Z,836.00
2019-02-27T08:50:40.387Z,836.00
2019-02-27T08:51:42.116Z,832.00
2019-02-27T08:52:40.364Z,840.00
2019-02-27T08:53:40.363Z,836.00
2019-02-27T08:54:40.579Z,840.00
2019-02-27T08:55:40.335Z,840.00
2019-02-27T08:56:40.403Z,840.00
2019-02-27T08:57:40.316Z,844.00
2019-02-27T08:58:40.306Z,848.00
2019-02-27T08:59:40.775Z,848.00
2019-02-27T09:00:40.294Z,852.00
2019-02-27T09:01:40.278Z,852.00
2019-02-27T09:02:40.270Z,852.00
2019-02-27T09:03:40.259Z,852.00
2019-02-27T09:04:42.909Z,856.00
2019-02-27T09:05:40.239Z,852.00
2019-02-27T09:06:40.231Z,856.00
2019-02-27T09:07:40.226Z,860.00
2019-02-27T09:08:43.322Z,856.00
2019-02-27T09:09:40.204Z,856.00
2019-02-27T09:10:40.302Z,860.00
2019-02-27T09:11:40.731Z,860.00
2019-02-27T09:12:40.338Z,864.00
2019-02-27T09:13:40.165Z,868.00
2019-02-27T09:14:40.158Z,868.00
2019-02-27T09:15:41.721Z,860.00
2019-02-27T09:16:40.141Z,860.00
2019-02-27T09:17:40.131Z,860.00
2019-02-27T09:18:40.117Z,860.00
2019-02-27T09:19:44.974Z,864.00
2019-02-27T09:20:40.098Z,868.00
2019-02-27T09:21:40.094Z,876.00
2019-02-27T09:22:40.082Z,876.00
2019-02-27T09:23:40.070Z,876.00
2019-02-27T09:24:40.070Z,880.00
2019-02-27T09:25:40.055Z,880.00
2019-02-27T09:26:40.043Z,880.00
2019-02-27T09:27:40.040Z,880.00
2019-02-27T09:28:44.316Z,884.00
2019-02-27T09:29:40.015Z,884.00
2019-02-27T09:30:40.006Z,884.00
2019-02-27T09:31:50.268Z,884.00
2019-02-27T09:32:40.000Z,884.00
2019-02-27T09:33:39.980Z,888.00
2019-02-27T09:34:39.975Z,888.00
2019-02-27T09:35:40.253Z,888.00
2019-02-27T09:36:43.044Z,888.00
2019-02-27T09:37:39.947Z,892.00
2019-02-27T09:38:39.937Z,892.00
2019-02-27T09:39:39.931Z,892.00
2019-02-27T09:40:40.061Z,896.00
2019-02-27T09:41:39.908Z,896.00
2019-02-27T09:42:39.913Z,896.00
2019-02-27T09:43:39.898Z,896.00
2019-02-27T09:44:39.884Z,896.00
2019-02-27T09:45:39.889Z,900.00
2019-02-27T09:46:39.870Z,904.00
2019-02-27T09:47:39.861Z,900.00
2019-02-27T09:48:39.863Z,900.00
2019-02-27T09:49:40.627Z,900.00
2019-02-27T09:50:39.836Z,904.00
2019-02-27T09:51:39.826Z,904.00
2019-02-27T09:52:39.816Z,900.00
2019-02-27T09:53:39.819Z,908.00
2019-02-27T09:54:39.798Z,908.00
2019-02-27T09:55:39.799Z,908.00
2019-02-27T09:56:39.786Z,908.00
2019-02-27T09:57:39.774Z,908.00
2019-02-27T09:58:45.082Z,908.00
2019-02-27T09:59:40.062Z,912.00
2019-02-27T10:00:39.770Z,912.00
2019-02-27T10:01:39.748Z,916.00
2019-02-27T10:02:39.992Z,916.00
2019-02-27T10:03:39.724Z,920.00
2019-02-27T10:04:39.721Z,920.00
2019-02-27T10:05:40.860Z,924.00
2019-02-27T10:06:40.450Z,924.00
2019-02-27T10:07:39.700Z,928.00
2019-02-27T10:08:39.684Z,924.00
2019-02-27T10:09:40.417Z,924.00
2019-02-27T10:10:39.696Z,928.00
2019-02-27T10:11:39.666Z,932.00
2019-02-27T10:12:39.656Z,932.00
2019-02-27T10:13:39.683Z,928.00
2019-02-27T10:14:39.722Z,928.00
2019-02-27T10:15:39.643Z,936.00
2019-02-27T10:16:39.622Z,936.00
2019-02-27T10:17:41.027Z,940.00
2019-02-27T10:18:39.694Z,940.00
2019-02-27T10:19:40.146Z,940.00
2019-02-27T10:20:39.591Z,940.00
2019-02-27T10:21:41.270Z,948.00
2019-02-27T10:22:39.584Z,948.00
2019-02-27T10:23:39.581Z,952.00
2019-02-27T10:24:39.580Z,960.00
2019-02-27T10:25:43.198Z,964.00
2019-02-27T10:26:39.559Z,968.00
2019-02-27T10:27:39.538Z,980.00
2019-02-27T10:28:39.851Z,976.00
2019-02-27T10:29:39.564Z,972.00
2019-02-27T10:30:39.849Z,968.00
2019-02-27T10:31:39.562Z,960.00
2019-02-27T10:32:39.506Z,956.00
2019-02-27T10:33:39.668Z,960.00
2019-02-27T10:34:39.503Z,956.00
2019-02-27T10:35:39.491Z,964.00
2019-02-27T10:36:39.476Z,960.00
2019-02-27T10:37:39.544Z,968.00
2019-02-27T10:38:40.374Z,968.00
2019-02-27T10:39:39.470Z,964.00
2019-02-27T10:40:39.466Z,972.00
2019-02-27T10:41:39.455Z,968.00
2019-02-27T10:42:39.443Z,976.00
2019-02-27T10:43:39.429Z,976.00
2019-02-27T10:44:39.435Z,976.00
2019-02-27T10:45:39.547Z,976.00
2019-02-27T10:46:39.407Z,980.00
2019-02-27T10:47:39.909Z,980.00
2019-02-27T10:48:40.114Z,980.00
2019-02-27T10:49:39.399Z,980.00
2019-02-27T10:50:39.378Z,976.00
2019-02-27T10:51:41.556Z,980.00
2019-02-27T10:52:39.364Z,984.00
2019-02-27T10:53:39.363Z,984.00
2019-02-27T10:54:39.912Z,984.00
2019-02-27T10:55:39.344Z,988.00
2019-02-27T10:56:39.341Z,980.00
2019-02-27T10:57:39.393Z,988.00
2019-02-27T10:58:39.421Z,988.00
2019-02-27T10:59:39.317Z,984.00
2019-02-27T11:00:39.325Z,984.00
2019-02-27T11:01:39.307Z,980.00
2019-02-27T11:02:39.332Z,988.00
2019-02-27T11:03:39.303Z,992.00
2019-02-27T11:04:39.634Z,992.00
2019-02-27T11:05:39.279Z,984.00
2019-02-27T11:06:39.322Z,988.00
2019-02-27T11:07:39.270Z,988.00
2019-02-27T11:08:39.299Z,988.00
2019-02-27T11:09:41.215Z,980.00
2019-02-27T11:10:39.256Z,980.00
2019-02-27T11:11:39.417Z,984.00
2019-02-27T11:12:39.241Z,980.00
2019-02-27T11:13:39.230Z,984.00
2019-02-27T11:14:39.224Z,984.00
2019-02-27T11:15:41.430Z,992.00
2019-02-27T11:16:39.213Z,992.00
2019-02-27T11:17:39.206Z,996.00
2019-02-27T11:18:39.200Z,992.00
2019-02-27T11:19:39.239Z,1000.00
2019-02-27T11:20:39.296Z,1000.00
2019-02-27T11:21:39.412Z,1000.00
2019-02-27T11:22:40.217Z,1008.00
2019-02-27T11:23:41.150Z,1120.00
2019-02-27T11:24:39.162Z,1008.00
2019-02-27T11:25:39.255Z,1016.00
2019-02-27T11:26:39.156Z,1016.00
2019-02-27T11:27:39.726Z,1016.00
2019-02-27T11:28:39.283Z,1004.00
2019-02-27T11:29:40.250Z,1020.00
2019-02-27T11:30:39.132Z,1020.00
2019-02-27T11:31:39.291Z,1016.00
2019-02-27T11:32:39.126Z,1016.00
2019-02-27T11:33:39.117Z,1016.00
2019-02-27T11:34:39.125Z,1012.00
2019-02-27T11:35:39.104Z,1012.00
2019-02-27T11:36:39.657Z,1012.00
2019-02-27T11:37:39.115Z,1008.00
2019-02-27T11:38:39.093Z,1008.00
2019-02-27T11:39:39.077Z,1012.00
2019-02-27T11:40:41.805Z,1008.00
2019-02-27T11:41:39.069Z,1008.00
2019-02-27T11:42:39.063Z,1012.00
2019-02-27T11:43:40.808Z,1008.00
2019-02-27T11:44:39.124Z,1008.00
2019-02-27T11:45:39.046Z,1016.00
2019-02-27T11:46:39.050Z,1012.00
2019-02-27T11:47:39.041Z,1016.00
2019-02-27T11:48:39.030Z,1012.00
2019-02-27T11:49:39.368Z,1004.00
2019-02-27T11:50:39.019Z,1016.00
2019-02-27T11:51:39.032Z,1016.00
2019-02-27T11:52:46.239Z,1016.00
2019-02-27T11:53:39.017Z,1016.00
2019-02-27T11:54:42.892Z,1024.00
2019-02-27T11:55:38.999Z,1012.00
2019-02-27T11:56:38.988Z,1028.00
2019-02-27T11:57:38.988Z,1024.00
2019-02-27T11:58:39.159Z,1028.00
2019-02-27T11:59:38.976Z,1028.00
2019-02-27T12:00:38.968Z,1036.00
2019-02-27T12:01:39.000Z,1040.00
2019-02-27T12:02:38.965Z,1044.00
2019-02-27T12:03:38.961Z,1044.00
2019-02-27T12:04:39.177Z,1056.00
2019-02-27T12:05:38.946Z,1056.00
2019-02-27T12:06:41.368Z,1048.00
2019-02-27T12:07:38.938Z,1064.00
2019-02-27T12:08:38.932Z,1072.00
2019-02-27T12:09:38.931Z,1056.00
2019-02-27T12:10:38.932Z,1076.00
2019-02-27T12:11:38.921Z,1072.00
2019-02-27T12:12:38.914Z,1064.00
2019-02-27T12:13:38.919Z,1080.00
2019-02-27T12:14:38.944Z,1080.00
2019-02-27T12:15:43.303Z,1080.00
2019-02-27T12:16:38.897Z,1076.00
2019-02-27T12:17:38.906Z,1084.00
2019-02-27T12:18:38.887Z,1076.00
2019-02-27T12:19:42.506Z,1072.00
2019-02-27T12:20:38.877Z,1068.00
2019-02-27T12:21:38.882Z,1072.00
2019-02-27T12:22:38.871Z,1072.00
2019-02-27T12:23:41.242Z,1080.00
2019-02-27T12:24:38.862Z,1088.00
2019-02-27T12:25:38.857Z,1092.00
2019-02-27T12:26:38.997Z,1092.00
2019-02-27T12:27:49.294Z,1100.00
2019-02-27T12:28:38.849Z,1092.00
2019-02-27T12:29:38.842Z,1108.00
2019-02-27T12:30:38.842Z,1108.00
2019-02-27T12:31:38.835Z,1112.00
2019-02-27T12:32:38.828Z,1112.00
2019-02-27T12:33:38.826Z,1108.00
2019-02-27T12:34:38.821Z,1104.00
2019-02-27T12:35:38.939Z,1104.00
2019-02-27T12:36:38.814Z,1108.00
2019-02-27T12:37:38.811Z,1104.00
2019-02-27T12:38:39.346Z,1104.00
2019-02-27T12:39:38.801Z,1108.00
2019-02-27T12:40:38.968Z,1108.00
2019-02-27T12:41:38.803Z,1104.00
2019-02-27T12:42:42.542Z,1092.00
2019-02-27T12:43:38.786Z,1096.00
2019-02-27T12:44:38.788Z,1072.00
2019-02-27T12:45:38.787Z,1088.00
2019-02-27T12:46:38.780Z,1088.00
2019-02-27T12:47:40.646Z,1064.00